Main page
METAR-TAF:

Airports :

Gloucester, England

Gloucestershire Airport

latitude: 51-54N, longitude: 002-10W, elevation: 29 m

Current weather observation

The report was made 37 minutes ago, at 09:20 UTC
Wind 3 kt from the Northeast
Temperature 3°C
Humidity 87%
Pressure 995 hPa
Visibility 10 km or more
Few clouds at a height of 1000 ft

METAR: EGBJ 140920Z 04003KT 9999 FEW010 03/01 Q0995

Time: 09:57 (09:57 UTC)

Forecast

The report was made 1 hour and 3 minutes ago, at 08:54 UTC
Forecast valid from 14 at 09 UTC to 14 at 18 UTC
Wind 6 kt from the East/Northeast
Visibility 10 km or more
Scattered clouds at a height of 4500 ft

TAF: EGBJ 140854Z 1409/1418 06006KT 9999 SCT045

METAR-TAF

Weather observations and forecasts of more than 4000 airports (METAR and TAF reports).

The available stations are represented by yellow and red dots on the map.

Hover mouse over dot to see the name of the station.

Then click to see weather observations and forecasts.

To change the map : click on the green buttons with a black cross to zoom in, on the green button with a dash to zoom out, or on the green arrows for adjacent maps.


METAR-TAF: